X  Fechar Dados meteorológicos de METAR da aviação     LEGR F.G.L. Airport Granada-Jaén Airport
Temperatura
84°F Temperatura
55°F Ponto de orvalho
37% Umidade



Vento
2 MPH
3 KM/H
1 M/S
2 NÓS



Calmo
N
Condições atuais

Limpo Limpo
Pressão 1014.9 (hPa) - 29.97 (inHg)
Visibilidade 6 (milha) - 9.7 (km)
Aeroporto
Código do aeroporto LEGR

Localização: F.G.L. Airport Granada-Jaén Airport
Distância: 138 (mi)

Metar:
LEGR 210930Z VRB02KT CAVOK 29/13 Q1015

Hora: 21-07-2024 11:30 CEST